Time;durP1;ratioP1;P1;durP2;ratioP2;P2;SDS_P1;SDS_P2;PMS_P1;PMS_P2;Temp;Humidity;BMP_temperature;BMP_pressure;BME280_temperature;BME280_humidity;BME280_pressure;Samples;Min_cycle;Max_cycle;Signal;HPM_P1;HPM_P2
2020/12/10 00:01:29;;;;;;;27.75;14.55;;;;;;;-3.69;61.64;100249.14;1728487;83;21154;-38
2020/12/10 00:03:58;;;;;;;28.47;14.05;;;;;;;-3.78;61.85;100243.98;1687095;84;21320;-38
2020/12/10 00:06:27;;;;;;;26.57;14.43;;;;;;;-3.79;61.85;100239.20;1728349;83;21154;-38
2020/12/10 00:08:55;;;;;;;33.38;16.57;;;;;;;-3.77;62.13;100248.21;1708035;84;21139;-38
2020/12/10 00:11:24;;;;;;;29.92;14.18;;;;;;;-3.76;61.90;100245.84;1765011;81;21155;-38
2020/12/10 00:13:52;;;;;;;31.35;15.70;;;;;;;-3.77;62.00;100249.02;1764977;81;21183;-38
2020/12/10 00:16:21;;;;;;;28.67;13.83;;;;;;;-3.76;62.07;100245.84;1765059;81;21415;-38
2020/12/10 00:18:49;;;;;;;29.82;14.40;;;;;;;-3.74;61.86;100249.06;1764996;81;21860;-38
2020/12/10 00:21:22;;;;;;;31.60;14.87;;;;;;;-3.72;61.69;100237.69;1765020;81;21161;-38
2020/12/10 00:23:51;;;;;;;32.70;14.45;;;;;;;-3.80;61.88;100232.30;1765105;81;21051;-38
2020/12/10 00:26:20;;;;;;;31.17;14.50;;;;;;;-3.77;62.05;100230.47;1765071;81;21147;-38
2020/12/10 00:28:48;;;;;;;27.55;14.50;;;;;;;-3.72;61.79;100239.81;1765392;80;21179;-37
2020/12/10 00:31:17;;;;;;;25.55;13.43;;;;;;;-3.74;61.86;100238.47;1764955;80;21000;-38
2020/12/10 00:33:46;;;;;;;24.95;14.18;;;;;;;-3.79;61.78;100233.09;1765044;80;21135;-38
2020/12/10 00:36:14;;;;;;;27.45;13.93;;;;;;;-3.86;61.92;100228.48;1765005;80;21116;-38
2020/12/10 00:38:43;;;;;;;25.37;14.05;;;;;;;-3.91;62.16;100231.05;1765127;80;21147;-38
2020/12/10 00:41:11;;;;;;;25.40;13.43;;;;;;;-3.93;62.38;100236.62;1765053;79;21465;-38
2020/12/10 00:43:39;;;;;;;29.25;14.23;;;;;;;-4.02;62.54;100236.20;1764976;81;21957;-38
2020/12/10 00:46:08;;;;;;;30.97;13.72;;;;;;;-4.01;62.45;100234.36;1764879;80;20996;-38
2020/12/10 00:48:36;;;;;;;28.17;13.22;;;;;;;-3.99;62.48;100229.64;1765062;81;20988;-38
2020/12/10 00:51:05;;;;;;;30.57;14.03;;;;;;;-4.02;62.57;100227.48;1765090;81;21087;-38
2020/12/10 00:53:34;;;;;;;31.82;14.95;;;;;;;-3.99;62.52;100230.95;1765101;80;21201;-38
2020/12/10 00:56:03;;;;;;;29.57;14.18;;;;;;;-4.04;62.60;100226.39;1765174;81;21123;-38
2020/12/10 00:58:31;;;;;;;31.97;14.05;;;;;;;-4.04;62.49;100219.77;1765095;80;21106;-38
2020/12/10 01:01:00;;;;;;;25.65;13.30;;;;;;;-4.04;62.67;100211.83;1765071;81;21630;-38
2020/12/10 01:03:28;;;;;;;27.77;13.80;;;;;;;-4.09;62.54;100217.05;1765092;80;21155;-38
2020/12/10 01:05:56;;;;;;;31.10;13.18;;;;;;;-4.10;62.86;100204.84;1764987;81;21191;-38
2020/12/10 01:08:25;;;;;;;24.77;14.13;;;;;;;-4.13;62.88;100202.70;1764959;80;21115;-38
2020/12/10 01:10:53;;;;;;;28.42;13.48;;;;;;;-4.23;62.70;100201.73;1765029;80;20989;-38
2020/12/10 01:13:21;;;;;;;30.65;14.10;;;;;;;-4.25;62.65;100213.87;1764982;80;21178;-38
2020/12/10 01:15:54;;;;;;;26.42;14.25;;;;;;;-4.72;62.59;100149.89;1765027;81;21594;-38
2020/12/10 01:18:22;;;;;;;30.17;14.35;;;;;;;-4.39;62.86;100216.57;1765042;81;21361;-38
2020/12/10 01:20:50;;;;;;;28.30;14.13;;;;;;;-4.38;62.86;100208.92;1759656;80;21194;-38
2020/12/10 01:23:19;;;;;;;29.35;14.35;;;;;;;-4.40;62.82;100216.28;1765051;81;21004;-38
2020/12/10 01:25:47;;;;;;;27.15;13.85;;;;;;;-4.50;63.04;100220.08;1765177;81;21106;-37
2020/12/10 01:28:15;;;;;;;31.82;13.48;;;;;;;-4.53;62.99;100208.67;1764941;80;21118;-37
2020/12/10 01:30:44;;;;;;;22.15;13.28;;;;;;;-4.53;63.06;100213.44;1765051;81;21186;-38
2020/12/10 01:33:12;;;;;;;29.80;14.18;;;;;;;-4.55;63.19;100223.45;1764917;81;21187;-38
2020/12/10 01:35:40;;;;;;;26.33;14.53;;;;;;;-4.55;63.19;100223.45;1765126;81;21549;-38
2020/12/10 01:38:09;;;;;;;26.48;14.38;;;;;;;-4.55;63.08;100221.35;1764951;81;21107;-38
2020/12/10 01:40:37;;;;;;;27.85;14.03;;;;;;;-4.64;63.34;100214.82;1765075;79;21162;-38
2020/12/10 01:43:06;;;;;;;22.87;13.05;;;;;;;-4.69;63.48;100217.38;1765012;80;21352;-38
2020/12/10 01:45:34;;;;;;;22.07;13.10;;;;;;;-4.67;63.57;100225.38;1764956;80;21111;-38
2020/12/10 01:48:03;;;;;;;23.95;13.93;;;;;;;-4.56;63.23;100225.03;1765511;79;20993;-38
2020/12/10 01:50:31;;;;;;;28.57;13.50;;;;;;;-4.56;63.23;100225.03;1764998;81;20997;-38
2020/12/10 01:52:59;;;;;;;26.73;14.15;;;;;;;-4.47;63.00;100231.53;1764984;81;21182;-38
2020/12/10 01:55:27;;;;;;;28.90;14.05;;;;;;;-4.44;63.05;100215.97;1780883;80;21397;-38
2020/12/10 01:57:57;;;;;;;23.70;10.93;;;;;;;-4.43;62.77;100209.64;1782146;80;21126;-38
2020/12/10 02:00:25;;;;;;;27.15;13.62;;;;;;;-4.46;62.75;100204.03;1781989;80;21792;-38
2020/12/10 02:02:57;;;;;;;26.73;13.65;;;;;;;-4.60;63.23;100196.91;1781993;80;21126;-38
2020/12/10 02:05:25;;;;;;;29.87;14.73;;;;;;;-4.63;63.09;100193.95;1782033;80;21087;-38
2020/12/10 02:07:53;;;;;;;25.45;13.18;;;;;;;-4.62;63.03;100196.36;1781976;80;21425;-38
2020/12/10 02:10:22;;;;;;;25.00;13.78;;;;;;;-4.65;63.06;100189.43;1781985;80;21154;-38
2020/12/10 02:12:50;;;;;;;24.85;13.20;;;;;;;-4.66;63.23;100189.14;1782046;80;21150;-38
2020/12/10 02:15:19;;;;;;;27.93;13.70;;;;;;;-4.67;63.25;100181.73;1781914;80;21115;-38
2020/12/10 02:17:48;;;;;;;23.95;13.50;;;;;;;-4.67;63.32;100180.92;1781985;80;21138;-38
2020/12/10 02:20:18;;;;;;;24.50;13.15;;;;;;;-4.73;63.42;100184.00;1782005;80;21039;-38
2020/12/10 02:23:05;;;;;;;27.15;13.62;;;;;;;-4.69;63.62;100167.12;1781911;80;20992;-38
2020/12/10 02:25:34;;;;;;;25.23;13.30;;;;;;;-4.67;63.19;100170.34;1782084;80;21177;-38
2020/12/10 02:28:12;;;;;;;27.07;13.53;;;;;;;-4.77;63.53;100164.36;1782176;80;21019;-38
2020/12/10 02:30:40;;;;;;;25.10;12.70;;;;;;;-4.82;63.74;100165.08;1782029;80;21146;-38
2020/12/10 02:33:10;;;;;;;25.68;12.98;;;;;;;-4.83;63.82;100152.89;1781923;80;21328;-38
2020/12/10 02:35:41;;;;;;;28.75;13.30;;;;;;;-4.89;63.88;100151.73;1781980;80;21162;-38
2020/12/10 02:38:10;;;;;;;27.67;14.07;;;;;;;-4.88;63.94;100159.41;1782544;79;21162;-38
2020/12/10 02:40:45;;;;;;;23.18;12.45;;;;;;;-4.88;64.02;100158.09;1792798;79;21542;-38
2020/12/10 02:43:14;;;;;;;29.35;13.55;;;;;;;-4.94;64.10;100154.30;1814259;79;21166;-38
2020/12/10 02:45:44;;;;;;;26.70;12.82;;;;;;;-5.01;64.03;100150.47;1814234;79;21688;-38
2020/12/10 02:48:12;;;;;;;23.92;13.53;;;;;;;-4.88;63.86;100160.73;1814153;79;21143;-38
2020/12/10 02:50:41;;;;;;;27.10;12.85;;;;;;;-4.86;63.93;100155.22;1814292;78;21090;-38
2020/12/10 02:53:09;;;;;;;28.07;12.95;;;;;;;-4.86;63.93;100155.22;1814164;79;21106;-38
2020/12/10 02:55:37;;;;;;;25.17;12.78;;;;;;;-4.90;63.91;100152.26;1799043;79;21123;-38
2020/12/10 02:58:06;;;;;;;23.87;11.75;;;;;;;-4.83;63.81;100151.56;1796624;79;21367;-38
2020/12/10 03:00:34;;;;;;;25.27;12.98;;;;;;;-4.73;63.58;100150.13;1796527;79;21179;-38
2020/12/10 03:03:02;;;;;;;28.87;12.63;;;;;;;-4.77;63.77;100143.20;1796493;79;21126;-38
2020/12/10 03:05:31;;;;;;;21.62;13.00;;;;;;;-4.70;63.83;100152.31;1796597;79;20985;-38
2020/12/10 03:07:59;;;;;;;25.85;13.40;;;;;;;-4.73;64.06;100155.41;1796568;79;21155;-38
2020/12/10 03:10:28;;;;;;;29.05;12.98;;;;;;;-4.64;63.92;100159.27;1796536;79;21142;-38
2020/12/10 03:12:56;;;;;;;23.77;13.22;;;;;;;-4.58;63.86;100157.80;1796622;79;20997;-38
2020/12/10 03:15:25;;;;;;;24.85;13.28;;;;;;;-4.58;64.11;100151.70;1796604;79;21127;-38
2020/12/10 03:17:53;;;;;;;27.62;13.72;;;;;;;-4.57;64.18;100134.27;1796647;79;21103;-38
2020/12/10 03:20:21;;;;;;;27.65;13.05;;;;;;;-4.55;64.15;100136.68;1796650;79;21139;-38
2020/12/10 03:22:50;;;;;;;25.88;12.65;;;;;;;-4.60;64.30;100148.51;1796658;79;21257;-38
2020/12/10 03:25:18;;;;;;;27.37;12.88;;;;;;;-4.60;64.52;100138.70;1796689;79;21523;-38
2020/12/10 03:27:47;;;;;;;28.15;13.32;;;;;;;-4.62;64.50;100128.89;1796645;79;21088;-38
2020/12/10 03:30:15;;;;;;;25.62;12.85;;;;;;;-4.69;64.77;100123.47;1796479;79;21107;-38
2020/12/10 03:32:43;;;;;;;22.40;11.73;;;;;;;-4.58;64.30;100132.66;1796638;79;21390;-38
2020/12/10 03:35:12;;;;;;;24.63;12.95;;;;;;;-4.58;64.30;100132.66;1796464;79;21205;-38
2020/12/10 03:37:40;;;;;;;21.10;12.25;;;;;;;-4.56;64.90;100139.05;1796524;79;21012;-38
2020/12/10 03:40:08;;;;;;;23.47;12.80;;;;;;;-4.49;64.87;100121.14;1796554;79;21139;-38
2020/12/10 03:42:37;;;;;;;23.65;11.97;;;;;;;-4.44;65.06;100123.34;1792389;79;21159;-38
2020/12/10 03:45:06;;;;;;;22.35;11.60;;;;;;;-4.57;65.13;100118.39;1765085;81;21111;-38
2020/12/10 03:47:34;;;;;;;25.00;12.37;;;;;;;-4.39;64.79;100124.74;1765407;81;21341;-38
2020/12/10 03:50:05;;;;;;;23.18;12.60;;;;;;;-4.39;64.82;100106.73;1765019;81;21016;-38
2020/12/10 03:52:33;;;;;;;24.92;12.53;;;;;;;-4.39;64.82;100106.73;1765122;81;21051;-38
2020/12/10 03:55:01;;;;;;;24.92;12.33;;;;;;;-4.33;64.91;100102.32;1772810;80;21146;-38
2020/12/10 03:57:30;;;;;;;25.80;12.80;;;;;;;-4.26;64.77;100093.14;1782154;80;21178;-38
2020/12/10 03:59:58;;;;;;;21.85;11.80;;;;;;;-4.29;64.79;100092.32;1781973;80;21202;-38
2020/12/10 04:02:26;;;;;;;23.90;11.65;;;;;;;-4.28;64.81;100081.22;1782036;80;21608;-38
2020/12/10 04:04:54;;;;;;;23.32;12.07;;;;;;;-4.27;64.82;100077.02;1781951;79;21165;-38
2020/12/10 04:07:23;;;;;;;26.73;12.65;;;;;;;-4.27;64.87;100080.98;1776856;80;21107;-38
2020/12/10 04:09:51;;;;;;;21.97;11.57;;;;;;;-4.18;64.64;100085.33;1782189;80;21115;-38
2020/12/10 04:12:20;;;;;;;27.37;12.50;;;;;;;-4.23;64.39;100080.77;1782033;80;21191;-38
2020/12/10 04:14:48;;;;;;;22.52;11.90;;;;;;;-4.23;64.39;100080.77;1781980;80;21016;-38
2020/12/10 04:17:16;;;;;;;26.70;13.25;;;;;;;-4.27;64.22;100084.95;1782114;80;21573;-38
2020/12/10 04:19:46;;;;;;;;;;;;;;;-4.26;64.28;100085.20;1784744;80;22087;-38
2020/12/10 04:22:14;;;;;;;24.65;13.03;;;;;;;-4.24;64.31;100091.59;1782028;80;20278;-38
2020/12/10 04:24:43;;;;;;;24.60;12.73;;;;;;;-4.35;64.62;100093.29;1782143;79;21154;-38
2020/12/10 04:27:12;;;;;;;24.95;12.63;;;;;;;-4.36;64.77;100097.01;1781843;80;21166;-38
2020/12/10 04:29:40;;;;;;;27.58;13.40;;;;;;;-4.31;64.67;100094.43;1782068;80;21039;-38
2020/12/10 04:32:08;;;;;;;24.82;12.35;;;;;;;-4.28;64.86;100092.61;1781924;80;21365;-38
2020/12/10 04:34:37;;;;;;;25.45;13.40;;;;;;;-4.24;64.87;100089.75;1782034;80;21131;-38
2020/12/10 04:37:05;;;;;;;25.25;12.30;;;;;;;-4.21;64.68;100088.47;1781957;80;21573;-38
2020/12/10 04:39:34;;;;;;;;;;;;;;;-4.19;64.62;100085.04;1783956;79;21142;-38
2020/12/10 04:42:08;;;;;;;29.37;12.88;;;;;;;-4.24;64.92;100084.45;1814014;78;20161;-38
2020/12/10 04:44:34;;;;;;;20.72;11.53;;;;;;;-4.33;65.20;100074.53;1814181;79;21696;-38
2020/12/10 04:47:03;;;;;;;24.27;12.23;;;;;;;-4.29;64.96;100059.23;1813990;79;21146;-38
2020/12/10 04:49:31;;;;;;;22.87;12.10;;;;;;;-4.27;65.00;100071.72;1814081;79;21366;-38
2020/12/10 04:51:59;;;;;;;25.00;12.50;;;;;;;-4.23;64.85;100072.82;1813937;78;21153;-38
2020/12/10 04:54:31;;;;;;;21.93;11.78;;;;;;;-4.19;64.82;100071.80;1812280;79;21150;-38
2020/12/10 04:56:59;;;;;;;24.85;12.33;;;;;;;-4.19;64.85;100070.48;1796498;79;20985;-38
2020/12/10 04:59:27;;;;;;;22.25;12.30;;;;;;;-4.14;65.00;100066.57;1796516;79;21712;-38
2020/12/10 05:01:56;;;;;;;26.77;12.93;;;;;;;-4.17;64.85;100059.94;1796434;79;21407;-38
2020/12/10 05:04:24;;;;;;;21.60;12.80;;;;;;;-4.13;64.88;100065.53;1796446;79;20961;-38
2020/12/10 05:06:53;;;;;;;24.43;12.55;;;;;;;-4.13;64.85;100066.86;1796494;79;20969;-38
2020/12/10 05:09:21;;;;;;;20.90;12.55;;;;;;;-4.15;65.16;100064.45;1796422;79;21609;-38
2020/12/10 05:11:50;;;;;;;23.57;12.37;;;;;;;-4.18;65.37;100055.69;1796528;79;21171;-38
2020/12/10 05:14:18;;;;;;;25.30;12.45;;;;;;;-4.13;65.46;100055.75;1796406;79;21411;-38
2020/12/10 05:16:47;;;;;;;21.33;12.80;;;;;;;-4.13;65.36;100050.45;1796576;79;21154;-38
2020/12/10 05:19:22;;;;;;;24.92;12.98;;;;;;;-4.16;65.68;100058.87;1796372;79;21016;-38
2020/12/10 05:22:02;;;;;;;22.40;12.75;;;;;;;-4.09;65.64;100060.83;1796532;79;21163;-38
2020/12/10 05:24:30;;;;;;;26.27;13.48;;;;;;;-4.02;65.59;100062.75;1795440;79;21638;-39
2020/12/10 05:27:21;;;;;;;23.95;13.75;;;;;;;-4.05;65.74;100067.74;1796483;79;21420;-38
2020/12/10 05:29:51;;;;;;;23.60;11.80;;;;;;;-4.04;65.73;100069.35;1796429;79;21554;-39
2020/12/10 05:32:39;;;;;;;26.85;13.70;;;;;;;-4.00;65.78;100071.78;1796407;79;21601;-39
2020/12/10 05:35:18;;;;;;;30.05;13.38;;;;;;;-4.04;66.30;100065.38;1792930;79;21719;-39
2020/12/10 05:37:46;;;;;;;23.98;13.78;;;;;;;-4.04;66.30;100065.38;1796561;79;21147;-39
2020/12/10 05:40:14;;;;;;;28.98;13.48;;;;;;;-4.02;66.12;100064.63;1796354;79;21476;-39
2020/12/10 05:42:49;;;;;;;28.17;13.85;;;;;;;-4.04;66.30;100058.23;1796499;79;21202;-39
2020/12/10 05:45:19;;;;;;;26.80;13.65;;;;;;;-4.12;66.69;100061.84;1796380;79;21178;-39
2020/12/10 05:47:58;;;;;;;;;;;;;;;-4.06;66.66;100064.81;1799269;79;21083;-39
2020/12/10 05:50:33;;;;;;;25.48;13.25;;;;;;;-4.01;66.63;100066.20;1796747;79;20245;-39
2020/12/10 05:53:10;;;;;;;26.87;14.10;;;;;;;-4.09;67.10;100051.55;1796389;79;21163;-39
2020/12/10 05:55:48;;;;;;;22.55;13.32;;;;;;;-4.09;67.10;100051.55;1796375;79;21154;-39
2020/12/10 05:58:19;;;;;;;23.55;13.68;;;;;;;-4.10;67.24;100049.95;1796427;79;21001;-38
2020/12/10 06:00:48;;;;;;;25.32;13.90;;;;;;;-4.02;67.15;100051.38;1796402;79;21116;-39
2020/12/10 06:03:16;;;;;;;23.85;13.38;;;;;;;-4.02;67.15;100051.38;1796511;79;21176;-39
2020/12/10 06:05:45;;;;;;;30.02;15.48;;;;;;;-4.01;67.22;100045.02;1796441;79;21366;-38
2020/12/10 06:08:13;;;;;;;30.75;14.00;;;;;;;-3.97;67.32;100044.82;1796411;79;21131;-39
2020/12/10 06:10:42;;;;;;;26.02;14.33;;;;;;;-3.93;67.22;100039.82;1796525;79;21116;-38
2020/12/10 06:13:12;;;;;;;29.87;14.78;;;;;;;-3.90;67.35;100038.80;1796618;79;22084;-39
2020/12/10 06:15:40;;;;;;;30.15;14.80;;;;;;;-3.95;67.75;100036.09;1796555;79;21155;-39
2020/12/10 06:18:15;;;;;;;29.00;15.03;;;;;;;-3.85;67.74;100034.88;1796541;79;21365;-39
2020/12/10 06:20:45;;;;;;;31.95;14.95;;;;;;;-3.82;67.63;100038.34;1796707;79;21534;-39
2020/12/10 06:23:32;;;;;;;32.13;15.15;;;;;;;-3.82;67.77;100047.62;1796767;79;20984;-39
2020/12/10 06:26:27;;;;;;;29.77;16.17;;;;;;;-3.75;67.62;100045.59;1796567;79;21136;-39
2020/12/10 06:29:20;;;;;;;32.60;15.65;;;;;;;-3.73;67.77;100045.34;1796334;79;21174;-38
2020/12/10 06:32:15;;;;;;;36.88;17.52;;;;;;;-3.71;67.64;100041.91;1796478;79;21453;-39
2020/12/10 06:34:52;;;;;;;31.60;16.37;;;;;;;-3.68;68.05;100040.11;1796481;79;21006;-39
2020/12/10 06:37:29;;;;;;;34.18;16.65;;;;;;;-3.66;68.33;100036.66;1796532;79;21144;-40
2020/12/10 06:40:05;;;;;;;35.48;17.32;;;;;;;-3.66;68.33;100036.66;1796664;79;21127;-39
2020/12/10 06:42:47;;;;;;;34.80;17.25;;;;;;;-3.62;68.30;100037.76;1796609;79;21119;-39
2020/12/10 06:45:34;;;;;;;31.25;16.55;;;;;;;-3.65;68.59;100035.09;1796547;79;21194;-39
2020/12/10 06:48:12;;;;;;;32.90;16.75;;;;;;;-3.64;68.79;100027.95;1796478;79;21146;-40
2020/12/10 06:50:40;;;;;;;39.15;17.77;;;;;;;-3.61;68.94;100031.42;1796633;79;21130;-39
2020/12/10 06:53:21;;;;;;;34.05;16.05;;;;;;;-3.56;68.98;100031.47;1796688;79;21159;-40
2020/12/10 06:56:02;;;;;;;39.60;17.52;;;;;;;-3.51;69.00;100031.52;1796107;79;21146;-39
2020/12/10 06:58:44;;;;;;;34.23;16.13;;;;;;;-3.46;68.88;100044.81;1796811;79;21927;-39
2020/12/10 07:01:37;;;;;;;36.85;15.83;;;;;;;-3.45;69.14;100054.37;1796650;79;21610;-39
2020/12/10 07:07:22;;;;;;;36.08;17.30;;;;;;;-3.34;68.88;100039.38;1796434;79;20988;-39
2020/12/10 07:09:58;;;;;;;34.78;16.87;;;;;;;-3.37;69.15;100049.14;1796804;79;21124;-39
2020/12/10 07:12:40;;;;;;;32.15;16.07;;;;;;;-3.41;69.25;100046.19;1796601;79;21427;-39
2020/12/10 07:18:00;;;;;;;33.20;16.12;;;;;;;-3.23;69.15;100035.22;1846293;75;22701;-38
2020/12/10 07:20:28;;;;;;;;;;;;;;;-3.24;69.03;100026.18;1816891;79;21051;-38
2020/12/10 07:22:58;;;;;;;33.83;17.75;;;;;;;-3.35;69.73;100015.23;1784732;80;21438;-38
2020/12/10 07:25:27;;;;;;;32.65;16.05;;;;;;;-3.35;69.73;100015.23;1784566;80;21015;-38
2020/12/10 07:27:58;;;;;;;35.40;17.57;;;;;;;-3.31;69.44;100013.15;1784670;80;21158;-38
2020/12/10 07:30:29;;;;;;;33.75;16.45;;;;;;;-3.35;69.56;100001.98;1784675;80;21011;-38
2020/12/10 07:32:58;;;;;;;30.75;15.85;;;;;;;-3.34;69.70;99998.28;1784760;80;21561;-38
2020/12/10 07:35:35;;;;;;;37.65;16.48;;;;;;;-3.29;69.63;100013.68;1784812;79;21363;-38
2020/12/10 07:39:52;;;;;;;34.60;17.00;;;;;;;-3.18;69.48;100015.89;1814780;78;22750;-38
2020/12/10 07:42:25;;;;;;;;;;;;;;;-3.30;69.63;100008.12;1818915;79;21071;-38
2020/12/10 07:44:55;;;;;;;36.38;17.02;;;;;;;-3.28;69.71;100012.63;1816337;78;21425;-38
2020/12/10 07:47:23;;;;;;;33.45;16.52;;;;;;;-3.30;69.80;100017.41;1816387;79;21198;-38
2020/12/10 07:49:55;;;;;;;32.45;16.32;;;;;;;-3.22;69.63;100027.55;1816297;79;21139;-38
2020/12/10 07:52:23;;;;;;;34.38;16.23;;;;;;;-3.14;69.37;100032.38;1816152;79;21007;-38
2020/12/10 07:54:56;;;;;;;29.52;16.48;;;;;;;-3.04;69.12;100025.02;1813265;79;20975;-38
2020/12/10 07:57:41;;;;;;;30.00;15.98;;;;;;;-3.04;69.11;100018.91;1816361;79;21214;-38
2020/12/10 08:00:13;;;;;;;30.27;15.55;;;;;;;-2.99;69.02;100020.28;1789912;79;21018;-38
2020/12/10 08:02:55;;;;;;;32.33;16.70;;;;;;;-2.93;68.83;100033.86;1784026;80;21616;-38
2020/12/10 08:05:26;;;;;;;33.05;16.57;;;;;;;-2.90;68.77;100022.73;1784175;80;21627;-38
2020/12/10 08:07:55;;;;;;;34.45;16.50;;;;;;;-2.90;69.01;100010.27;1784061;80;21161;-38
2020/12/10 08:10:29;;;;;;;30.65;16.05;;;;;;;-2.86;68.90;100007.92;1784229;80;21682;-38
2020/12/10 08:13:18;;;;;;;30.80;16.90;;;;;;;-2.82;68.79;100010.34;1784069;80;21140;-38
2020/12/10 08:15:49;;;;;;;29.73;16.63;;;;;;;-2.86;68.75;99995.98;1784091;80;21129;-38
2020/12/10 08:18:21;;;;;;;31.02;16.95;;;;;;;-2.87;68.89;99989.88;1784051;80;21046;-39
2020/12/10 08:20:51;;;;;;;30.45;15.98;;;;;;;-2.83;68.76;99992.81;1784033;80;21114;-39
2020/12/10 08:23:20;;;;;;;29.70;16.40;;;;;;;-2.85;68.88;99986.95;1784318;80;22226;-39
2020/12/10 08:25:51;;;;;;;32.25;16.85;;;;;;;-2.79;68.56;99992.56;1783962;80;21201;-39
2020/12/10 08:28:19;;;;;;;32.95;17.42;;;;;;;-2.76;68.60;99995.50;1780022;80;21223;-39
2020/12/10 08:30:51;;;;;;;30.10;15.60;;;;;;;-2.75;68.46;99993.13;1784061;80;21002;-39
2020/12/10 08:33:20;;;;;;;34.65;16.82;;;;;;;-2.72;68.37;100001.92;1784008;80;21066;-39
2020/12/10 08:35:48;;;;;;;33.45;16.87;;;;;;;-2.70;68.28;100000.31;1783957;80;21353;-39
2020/12/10 08:38:18;;;;;;;33.07;17.03;;;;;;;-2.71;68.28;99996.86;1781946;80;21180;-39
2020/12/10 08:40:52;;;;;;;31.33;15.60;;;;;;;-2.73;68.47;99995.53;1791529;79;21099;-39
2020/12/10 08:43:20;;;;;;;35.08;17.20;;;;;;;-2.71;68.44;99992.11;1805058;79;21465;-39
2020/12/10 08:45:51;;;;;;;32.70;17.77;;;;;;;-2.67;68.39;99991.86;1805106;79;21566;-39
2020/12/10 08:48:28;;;;;;;27.95;16.48;;;;;;;-2.75;68.60;100002.94;1805206;79;22295;-38
2020/12/10 08:50:58;;;;;;;29.98;16.05;;;;;;;-2.68;68.47;100004.84;1803606;79;21126;-39
2020/12/10 08:53:26;;;;;;;32.38;16.87;;;;;;;-2.69;68.53;100006.70;1804639;79;21170;-39
2020/12/10 08:55:56;;;;;;;32.90;17.40;;;;;;;-2.71;68.72;100008.03;1804472;79;21150;-39
2020/12/10 08:58:29;;;;;;;32.05;17.00;;;;;;;-2.66;68.83;100002.20;1804600;79;21131;-39
2020/12/10 09:01:00;;;;;;;29.45;17.32;;;;;;;-2.55;68.68;99983.15;1804432;79;21201;-39
2020/12/10 09:03:31;;;;;;;32.05;17.27;;;;;;;-2.55;68.91;99981.02;1804346;79;21114;-39
2020/12/10 09:05:59;;;;;;;32.98;17.77;;;;;;;-2.44;68.84;99978.69;1804329;79;21115;-39
2020/12/10 09:08:28;;;;;;;31.33;16.25;;;;;;;-2.34;68.69;99959.62;1804692;79;21146;-39
2020/12/10 09:10:57;;;;;;;34.13;16.25;;;;;;;-2.33;68.67;99956.44;1804552;79;21115;-39
2020/12/10 09:13:25;;;;;;;31.50;16.40;;;;;;;-2.35;68.55;99954.56;1804493;79;21265;-39
2020/12/10 09:15:54;;;;;;;37.58;18.60;;;;;;;-2.38;68.64;99959.88;1804571;79;21735;-39
2020/12/10 09:18:22;;;;;;;37.93;19.12;;;;;;;-2.40;68.76;99961.98;1804284;79;21166;-39
2020/12/10 09:20:50;;;;;;;37.40;18.32;;;;;;;-2.43;68.62;99955.87;1804547;79;21063;-39
2020/12/10 09:23:18;;;;;;;41.18;19.87;;;;;;;-2.40;68.61;99957.20;1804415;79;21158;-39
2020/12/10 09:25:47;;;;;;;39.03;20.05;;;;;;;-2.46;68.89;99955.57;1804361;79;21339;-39
2020/12/10 09:28:16;;;;;;;38.53;19.23;;;;;;;-2.43;68.75;99951.09;1804351;79;21187;-39
2020/12/10 09:30:45;;;;;;;43.30;20.55;;;;;;;-2.42;68.81;99960.10;1804474;79;21162;-39
2020/12/10 09:33:13;;;;;;;41.50;19.27;;;;;;;-2.46;69.26;99960.88;1804391;79;21020;-39
2020/12/10 09:35:41;;;;;;;39.73;19.45;;;;;;;-2.41;69.41;99968.34;1804545;79;21122;-39
2020/12/10 09:38:11;;;;;;;37.63;19.37;;;;;;;-2.36;69.61;99963.05;1804210;79;21294;-40
2020/12/10 09:40:39;;;;;;;29.48;15.43;;;;;;;-2.37;69.42;99966.77;1805268;79;21127;-39
2020/12/10 09:43:08;;;;;;;32.88;16.52;;;;;;;-2.35;68.69;99955.89;1813229;78;21186;-39
2020/12/10 09:45:37;;;;;;;44.53;19.52;;;;;;;-2.32;67.71;99964.13;1813007;79;21055;-39
2020/12/10 09:48:05;;;;;;;40.12;20.05;;;;;;;-2.33;67.51;99947.15;1812950;79;21139;-39
2020/12/10 09:50:37;;;;;;;42.75;18.23;;;;;;;-2.37;67.40;99946.84;1813002;79;21446;-39
2020/12/10 09:53:23;;;;;;;34.15;18.27;;;;;;;-2.44;67.21;99946.31;1812830;78;20972;-39
2020/12/10 09:58:24;;;;;;;36.03;17.30;;;;;;;-2.49;68.21;99955.58;1772070;81;21409;-39
2020/12/10 10:00:52;;;;;;;37.80;17.95;;;;;;;-2.49;68.21;99955.58;1772063;81;21143;-39
2020/12/10 10:03:21;;;;;;;40.58;18.10;;;;;;;-2.53;68.34;99964.31;1772131;81;21313;-39
2020/12/10 10:05:51;;;;;;;38.20;17.52;;;;;;;-2.49;68.31;99963.55;1771586;81;21036;-39
2020/12/10 10:08:22;;;;;;;39.42;17.95;;;;;;;-2.49;68.36;99960.89;1772029;81;21177;-39
2020/12/10 10:10:50;;;;;;;36.42;18.52;;;;;;;-2.44;68.55;99956.92;1772186;81;21155;-39
2020/12/10 10:13:19;;;;;;;37.08;18.95;;;;;;;-2.38;68.19;99954.57;1772118;81;21188;-39
2020/12/10 10:15:47;;;;;;;38.20;17.57;;;;;;;-2.39;67.69;99947.66;1772138;81;21157;-39
2020/12/10 10:18:16;;;;;;;34.08;17.75;;;;;;;-2.37;67.66;99939.44;1771934;81;21194;-39
2020/12/10 10:20:45;;;;;;;33.83;17.77;;;;;;;-2.46;67.27;99937.80;1772407;81;21071;-39
2020/12/10 10:23:13;;;;;;;35.00;18.07;;;;;;;-2.48;67.41;99929.30;1771924;81;20988;-39
2020/12/10 10:25:43;;;;;;;38.42;17.70;;;;;;;-2.55;67.48;99922.09;1772306;81;21546;-39
2020/12/10 10:28:14;;;;;;;36.17;16.77;;;;;;;-2.69;67.73;99912.48;1772031;81;21379;-39
2020/12/10 10:30:41;;;;;;;;;;;;;;;-2.65;68.15;99916.74;1774579;81;21191;-39
2020/12/10 10:33:10;;;;;;;41.18;18.23;;;;;;;-2.62;67.99;99916.77;1772144;81;20171;-39
2020/12/10 10:35:38;;;;;;;34.67;17.20;;;;;;;-2.67;68.00;99917.55;1772137;81;21060;-39
2020/12/10 10:38:08;;;;;;;40.30;18.80;;;;;;;-2.72;67.77;99910.37;1772206;81;21138;-39
2020/12/10 10:40:41;;;;;;;42.17;18.20;;;;;;;-2.83;67.97;99921.17;1793519;79;23650;-39
2020/12/10 10:43:09;;;;;;;37.35;18.00;;;;;;;-2.89;68.43;99916.36;1698513;83;21177;-39
2020/12/10 10:45:37;;;;;;;38.20;19.85;;;;;;;-2.88;68.40;99917.17;1797125;79;20969;-39
2020/12/10 10:48:06;;;;;;;40.90;18.12;;;;;;;-2.89;68.49;99911.58;1796972;79;21625;-39
2020/12/10 10:50:34;;;;;;;39.00;18.25;;;;;;;-2.84;68.49;99917.72;1797101;79;21127;-39
2020/12/10 10:53:03;;;;;;;42.13;19.35;;;;;;;-2.86;68.46;99916.39;1718728;83;21241;-39
2020/12/10 10:55:32;;;;;;;38.92;18.50;;;;;;;-2.82;68.58;99913.49;1797065;79;21119;-39
2020/12/10 10:58:00;;;;;;;40.05;18.65;;;;;;;-2.82;68.45;99916.95;1718707;83;21190;-39
2020/12/10 11:00:30;;;;;;;39.38;18.90;;;;;;;-2.86;68.25;99923.83;1797277;79;21096;-39
2020/12/10 11:02:58;;;;;;;34.43;19.65;;;;;;;-2.85;68.14;99917.97;1718894;82;21174;-39
2020/12/10 11:05:26;;;;;;;39.53;19.17;;;;;;;-2.90;68.07;99920.59;1797027;79;21502;-39
2020/12/10 11:07:55;;;;;;;42.23;18.80;;;;;;;-2.91;68.30;99924.33;1718789;83;21035;-39
2020/12/10 11:10:23;;;;;;;41.92;19.57;;;;;;;-2.96;68.54;99916.34;1766332;79;20973;-38
2020/12/10 11:12:52;;;;;;;39.13;19.20;;;;;;;-2.91;68.52;99915.04;1797235;79;21167;-39
2020/12/10 11:15:20;;;;;;;34.67;19.02;;;;;;;-2.91;68.43;99912.39;1718746;82;21159;-39
2020/12/10 11:17:49;;;;;;;34.38;19.17;;;;;;;-2.92;68.34;99907.61;1797028;79;21315;-39
2020/12/10 11:20:17;;;;;;;38.28;18.02;;;;;;;-2.94;68.54;99902.27;1718676;83;21155;-39
2020/12/10 11:22:46;;;;;;;39.10;18.48;;;;;;;-2.91;68.57;99899.92;1796991;79;21165;-39
2020/12/10 11:25:14;;;;;;;40.48;18.52;;;;;;;-2.90;68.52;99899.38;1718681;83;21048;-39
2020/12/10 11:27:42;;;;;;;33.92;18.60;;;;;;;-2.91;68.54;99895.14;1796989;79;21151;-39
2020/12/10 11:30:11;;;;;;;36.60;18.65;;;;;;;-2.94;68.81;99900.95;1718739;82;21291;-39
2020/12/10 11:32:39;;;;;;;36.77;18.98;;;;;;;-2.91;68.62;99895.14;1796906;79;21178;-39
2020/12/10 11:35:09;;;;;;;35.52;19.48;;;;;;;-2.86;68.59;99900.48;1718879;83;21606;-39
2020/12/10 11:37:39;;;;;;;35.78;19.67;;;;;;;-2.91;68.79;99899.12;1797166;79;21147;-39
2020/12/10 11:40:07;;;;;;;;;;;;;;;-2.89;68.84;99904.95;1730854;82;21656;-39